createdAt,value
2023-05-21T00:00:14.650Z,620.00
2023-05-21T00:01:14.656Z,620.00
2023-05-21T00:02:14.685Z,623.00
2023-05-21T00:03:14.724Z,621.00
2023-05-21T00:04:14.661Z,618.00
2023-05-21T00:05:15.114Z,616.00
2023-05-21T00:06:14.765Z,621.00
2023-05-21T00:07:14.667Z,622.00
2023-05-21T00:08:14.660Z,621.00
2023-05-21T00:09:14.661Z,623.00
2023-05-21T00:10:14.740Z,623.00
2023-05-21T00:11:14.681Z,623.00
2023-05-21T00:12:14.687Z,623.00
2023-05-21T00:13:14.677Z,623.00
2023-05-21T00:14:14.679Z,623.00
2023-05-21T00:15:14.701Z,624.00
2023-05-21T00:16:14.743Z,620.00
2023-05-21T00:17:14.709Z,620.00
2023-05-21T00:18:14.717Z,621.00
2023-05-21T00:19:14.753Z,622.00
2023-05-21T00:20:14.722Z,623.00
2023-05-21T00:21:14.740Z,621.00
2023-05-21T00:22:14.736Z,622.00
2023-05-21T00:23:14.761Z,621.00
2023-05-21T00:24:14.781Z,621.00
2023-05-21T00:25:14.780Z,620.00
2023-05-21T00:26:14.780Z,619.00
2023-05-21T00:27:14.787Z,619.00
2023-05-21T00:28:14.817Z,619.00
2023-05-21T00:29:14.811Z,620.00
2023-05-21T00:30:14.816Z,618.00
2023-05-21T00:31:14.881Z,619.00
2023-05-21T00:32:14.830Z,618.00
2023-05-21T00:33:14.832Z,618.00
2023-05-21T00:34:14.844Z,617.00
2023-05-21T00:35:14.869Z,617.00
2023-05-21T00:36:14.922Z,618.00
2023-05-21T00:37:14.851Z,617.00
2023-05-21T00:38:14.851Z,616.00
2023-05-21T00:39:14.855Z,615.00
2023-05-21T00:40:14.871Z,617.00
2023-05-21T00:41:14.882Z,616.00
2023-05-21T00:42:14.924Z,616.00
2023-05-21T00:43:14.883Z,617.00
2023-05-21T00:44:14.894Z,615.00
2023-05-21T00:45:14.906Z,615.00
2023-05-21T00:46:14.966Z,614.00
2023-05-21T00:47:14.937Z,614.00
2023-05-21T00:48:14.940Z,614.00
2023-05-21T00:49:14.942Z,614.00
2023-05-21T00:50:15.063Z,614.00
2023-05-21T00:51:14.935Z,612.00
2023-05-21T00:52:14.946Z,614.00
2023-05-21T00:53:14.950Z,615.00
2023-05-21T00:54:14.945Z,615.00
2023-05-21T00:55:14.957Z,616.00
2023-05-21T00:56:14.970Z,615.00
2023-05-21T00:57:14.981Z,613.00
2023-05-21T00:58:14.970Z,613.00
2023-05-21T00:59:14.972Z,612.00
2023-05-21T01:00:15.011Z,612.00
2023-05-21T01:01:15.037Z,612.00
2023-05-21T01:02:15.042Z,613.00
2023-05-21T01:03:15.132Z,614.00
2023-05-21T01:04:15.026Z,615.00
2023-05-21T01:05:15.038Z,615.00
2023-05-21T01:06:15.069Z,613.00
2023-05-21T01:07:15.062Z,609.00
2023-05-21T01:08:15.085Z,609.00
2023-05-21T01:09:15.073Z,608.00
2023-05-21T01:10:15.074Z,609.00
2023-05-21T01:11:15.138Z,609.00
2023-05-21T01:12:15.092Z,610.00
2023-05-21T01:13:15.126Z,610.00
2023-05-21T01:14:15.102Z,611.00
2023-05-21T01:15:15.128Z,612.00
2023-05-21T01:16:15.123Z,611.00
2023-05-21T01:17:15.229Z,609.00
2023-05-21T01:18:15.154Z,611.00
2023-05-21T01:19:15.204Z,609.00
2023-05-21T01:20:15.150Z,608.00
2023-05-21T01:21:15.151Z,611.00
2023-05-21T01:22:15.172Z,610.00
2023-05-21T01:23:15.152Z,609.00
2023-05-21T01:24:15.176Z,610.00
2023-05-21T01:25:15.210Z,614.00
2023-05-21T01:26:15.185Z,613.00
2023-05-21T01:27:15.186Z,615.00
2023-05-21T01:28:15.214Z,613.00
2023-05-21T01:29:15.217Z,613.00
2023-05-21T01:30:15.222Z,615.00
2023-05-21T01:31:15.222Z,615.00
2023-05-21T01:32:15.229Z,615.00
2023-05-21T01:33:15.359Z,615.00
2023-05-21T01:34:15.251Z,616.00
2023-05-21T01:35:15.261Z,611.00
2023-05-21T01:36:15.260Z,608.00
2023-05-21T01:37:15.273Z,612.00
2023-05-21T01:38:15.269Z,610.00
2023-05-21T01:39:15.282Z,611.00
2023-05-21T01:40:15.298Z,610.00
2023-05-21T01:41:15.305Z,608.00
2023-05-21T01:42:15.375Z,606.00
2023-05-21T01:43:15.332Z,609.00
2023-05-21T01:44:15.361Z,611.00
2023-05-21T01:45:15.383Z,613.00
2023-05-21T01:46:15.433Z,612.00
2023-05-21T01:47:15.443Z,610.00
2023-05-21T01:48:15.477Z,610.00
2023-05-21T01:49:15.506Z,611.00
2023-05-21T01:50:15.525Z,608.00
2023-05-21T01:51:15.560Z,608.00
2023-05-21T01:52:15.576Z,606.00
2023-05-21T01:53:15.608Z,607.00
2023-05-21T01:54:15.632Z,608.00
2023-05-21T01:55:15.674Z,608.00
2023-05-21T01:56:15.692Z,612.00
2023-05-21T01:57:15.728Z,611.00
2023-05-21T01:58:15.792Z,612.00
2023-05-21T01:59:15.780Z,613.00
2023-05-21T02:00:15.817Z,612.00
2023-05-21T02:01:15.839Z,613.00
2023-05-21T02:02:16.034Z,612.00
2023-05-21T02:03:15.940Z,612.00
2023-05-21T02:04:15.942Z,610.00
2023-05-21T02:05:15.945Z,610.00
2023-05-21T02:06:16.431Z,609.00
2023-05-21T02:07:16.042Z,609.00
2023-05-21T02:08:16.042Z,610.00
2023-05-21T02:09:16.105Z,611.00
2023-05-21T02:10:16.187Z,612.00
2023-05-21T02:11:16.131Z,611.00
2023-05-21T02:12:16.159Z,613.00
2023-05-21T02:13:16.186Z,613.00
2023-05-21T02:14:16.224Z,614.00
2023-05-21T02:15:16.232Z,615.00
2023-05-21T02:16:16.387Z,616.00
2023-05-21T02:17:16.310Z,614.00
2023-05-21T02:18:16.329Z,614.00
2023-05-21T02:19:16.460Z,614.00
2023-05-21T02:20:16.385Z,612.00
2023-05-21T02:21:16.428Z,609.00
2023-05-21T02:22:16.454Z,611.00
2023-05-21T02:23:16.492Z,611.00
2023-05-21T02:24:16.522Z,610.00
2023-05-21T02:25:16.629Z,612.00
2023-05-21T02:26:16.572Z,613.00
2023-05-21T02:27:16.622Z,614.00
2023-05-21T02:28:16.646Z,616.00
2023-05-21T02:29:16.681Z,616.00
2023-05-21T02:30:16.704Z,615.00
2023-05-21T02:31:16.757Z,615.00
2023-05-21T02:32:16.764Z,615.00
2023-05-21T02:33:16.809Z,614.00
2023-05-21T02:34:16.948Z,612.00
2023-05-21T02:35:16.844Z,613.00
2023-05-21T02:36:16.868Z,615.00
2023-05-21T02:37:16.905Z,615.00
2023-05-21T02:38:16.918Z,615.00
2023-05-21T02:39:16.959Z,615.00
2023-05-21T02:40:16.984Z,614.00
2023-05-21T02:41:16.999Z,614.00
2023-05-21T02:42:17.027Z,616.00
2023-05-21T02:43:17.064Z,615.00
2023-05-21T02:44:17.081Z,614.00
2023-05-21T02:45:17.110Z,613.00
2023-05-21T02:46:17.174Z,612.00
2023-05-21T02:47:17.169Z,613.00
2023-05-21T02:48:17.192Z,613.00
2023-05-21T02:49:17.233Z,613.00
2023-05-21T02:50:17.280Z,614.00
2023-05-21T02:51:17.271Z,614.00
2023-05-21T02:52:17.304Z,615.00
2023-05-21T02:53:17.323Z,613.00
2023-05-21T02:54:17.355Z,613.00
2023-05-21T02:55:17.435Z,615.00
2023-05-21T02:56:17.413Z,617.00
2023-05-21T02:57:17.442Z,620.00
2023-05-21T02:58:17.474Z,618.00
2023-05-21T02:59:17.500Z,615.00
2023-05-21T03:00:17.534Z,614.00
2023-05-21T03:01:17.661Z,613.00
2023-05-21T03:02:17.692Z,616.00
2023-05-21T03:03:17.730Z,618.00
2023-05-21T03:04:17.652Z,617.00
2023-05-21T03:05:17.690Z,618.00
2023-05-21T03:06:17.698Z,615.00
2023-05-21T03:07:17.740Z,614.00
2023-05-21T03:08:17.757Z,609.00
2023-05-21T03:09:17.788Z,610.00
2023-05-21T03:10:17.832Z,610.00
2023-05-21T03:11:17.840Z,613.00
2023-05-21T03:12:17.882Z,613.00
2023-05-21T03:13:17.923Z,614.00
2023-05-21T03:14:17.960Z,612.00
2023-05-21T03:15:17.963Z,608.00
2023-05-21T03:16:18.008Z,609.00
2023-05-21T03:17:18.014Z,608.00
2023-05-21T03:18:18.034Z,610.00
2023-05-21T03:19:18.091Z,608.00
2023-05-21T03:20:18.096Z,610.00
2023-05-21T03:21:18.123Z,612.00
2023-05-21T03:22:18.154Z,611.00
2023-05-21T03:23:18.191Z,611.00
2023-05-21T03:24:18.202Z,611.00
2023-05-21T03:25:18.238Z,609.00
2023-05-21T03:26:18.266Z,610.00
2023-05-21T03:27:18.290Z,613.00
2023-05-21T03:28:18.325Z,614.00
2023-05-21T03:29:18.360Z,612.00
2023-05-21T03:30:18.377Z,612.00
2023-05-21T03:31:18.432Z,611.00
2023-05-21T03:32:18.534Z,612.00
2023-05-21T03:33:18.468Z,613.00
2023-05-21T03:34:18.498Z,616.00
2023-05-21T03:35:18.540Z,616.00
2023-05-21T03:36:18.559Z,615.00
2023-05-21T03:37:18.599Z,614.00
2023-05-21T03:38:18.607Z,614.00
2023-05-21T03:39:18.635Z,616.00
2023-05-21T03:40:18.675Z,618.00
2023-05-21T03:41:18.708Z,617.00
2023-05-21T03:42:18.741Z,617.00
2023-05-21T03:43:18.757Z,617.00
2023-05-21T03:44:18.790Z,619.00
2023-05-21T03:45:18.840Z,622.00
2023-05-21T03:46:18.935Z,620.00
2023-05-21T03:47:18.899Z,619.00
2023-05-21T03:48:18.929Z,618.00
2023-05-21T03:49:18.953Z,620.00
2023-05-21T03:50:18.997Z,621.00
2023-05-21T03:51:19.020Z,617.00
2023-05-21T03:52:19.052Z,618.00
2023-05-21T03:53:19.081Z,620.00
2023-05-21T03:54:19.110Z,623.00
2023-05-21T03:55:19.147Z,622.00
2023-05-21T03:56:19.161Z,621.00
2023-05-21T03:57:19.199Z,620.00
2023-05-21T03:58:19.238Z,617.00
2023-05-21T03:59:19.257Z,616.00
2023-05-21T04:00:19.293Z,617.00
2023-05-21T04:01:19.335Z,617.00
2023-05-21T04:02:19.449Z,619.00
2023-05-21T04:03:19.457Z,621.00
2023-05-21T04:04:19.426Z,620.00
2023-05-21T04:05:19.433Z,620.00
2023-05-21T04:06:19.475Z,620.00
2023-05-21T04:07:19.558Z,619.00
2023-05-21T04:08:19.559Z,615.00
2023-05-21T04:09:19.599Z,613.00
2023-05-21T04:10:19.926Z,613.00
2023-05-21T04:11:19.698Z,612.00
2023-05-21T04:12:19.743Z,613.00
2023-05-21T04:13:19.775Z,612.00
2023-05-21T04:14:19.820Z,613.00
2023-05-21T04:15:19.870Z,616.00
2023-05-21T04:16:19.925Z,616.00
2023-05-21T04:17:19.946Z,617.00
2023-05-21T04:18:19.988Z,616.00
2023-05-21T04:19:20.084Z,615.00
2023-05-21T04:20:20.097Z,616.00
2023-05-21T04:21:20.138Z,616.00
2023-05-21T04:22:20.164Z,613.00
2023-05-21T04:23:20.196Z,613.00
2023-05-21T04:24:20.246Z,616.00
2023-05-21T04:25:20.301Z,618.00
2023-05-21T04:26:20.330Z,619.00
2023-05-21T04:27:20.371Z,619.00
2023-05-21T04:28:20.561Z,620.00
2023-05-21T04:29:20.453Z,623.00
2023-05-21T04:30:20.500Z,620.00
2023-05-21T04:31:20.567Z,619.00
2023-05-21T04:32:20.609Z,618.00
2023-05-21T04:33:20.619Z,617.00
2023-05-21T04:34:20.654Z,618.00
2023-05-21T04:35:20.698Z,616.00
2023-05-21T04:36:20.751Z,618.00
2023-05-21T04:37:20.777Z,617.00
2023-05-21T04:38:20.848Z,617.00
2023-05-21T04:39:20.863Z,617.00
2023-05-21T04:40:20.915Z,618.00
2023-05-21T04:41:20.945Z,619.00
2023-05-21T04:42:20.981Z,620.00
2023-05-21T04:43:21.023Z,618.00
2023-05-21T04:44:21.060Z,615.00
2023-05-21T04:45:21.125Z,613.00
2023-05-21T04:46:21.180Z,615.00
2023-05-21T04:47:21.236Z,618.00
2023-05-21T04:48:21.223Z,618.00
2023-05-21T04:49:21.278Z,616.00
2023-05-21T04:50:21.311Z,617.00
2023-05-21T04:51:21.366Z,620.00
2023-05-21T04:52:21.389Z,615.00
2023-05-21T04:53:21.435Z,611.00
2023-05-21T04:54:21.511Z,611.00
2023-05-21T04:55:21.530Z,611.00
2023-05-21T04:56:21.561Z,610.00
2023-05-21T04:57:21.608Z,611.00
2023-05-21T04:58:21.642Z,613.00
2023-05-21T04:59:21.697Z,610.00
2023-05-21T05:00:21.777Z,610.00
2023-05-21T05:01:21.876Z,609.00
2023-05-21T05:02:21.872Z,610.00
2023-05-21T05:03:21.989Z,609.00
2023-05-21T05:04:22.898Z,610.00
2023-05-21T05:05:21.921Z,611.00
2023-05-21T05:06:21.936Z,613.00
2023-05-21T05:07:21.958Z,611.00
2023-05-21T05:08:21.977Z,610.00
2023-05-21T05:09:22.005Z,610.00
2023-05-21T05:10:21.993Z,610.00
2023-05-21T05:11:22.024Z,609.00
2023-05-21T05:12:22.041Z,607.00
2023-05-21T05:13:22.059Z,606.00
2023-05-21T05:14:22.101Z,606.00
2023-05-21T05:15:22.101Z,606.00
2023-05-21T05:16:22.152Z,607.00
2023-05-21T05:17:22.176Z,607.00
2023-05-21T05:18:22.149Z,609.00
2023-05-21T05:19:22.209Z,612.00
2023-05-21T05:20:22.176Z,614.00
2023-05-21T05:21:22.196Z,612.00
2023-05-21T05:22:22.228Z,605.00
2023-05-21T05:23:22.238Z,605.00
2023-05-21T05:24:22.279Z,605.00
2023-05-21T05:25:22.326Z,607.00
2023-05-21T05:26:22.371Z,607.00
2023-05-21T05:27:22.410Z,606.00
2023-05-21T05:28:22.453Z,610.00
2023-05-21T05:29:22.505Z,611.00
2023-05-21T05:30:22.546Z,608.00
2023-05-21T05:31:22.776Z,609.00
2023-05-21T05:32:22.672Z,612.00
2023-05-21T05:33:22.685Z,610.00
2023-05-21T05:34:22.733Z,611.00
2023-05-21T05:35:22.771Z,614.00
2023-05-21T05:36:22.824Z,613.00
2023-05-21T05:37:22.866Z,613.00
2023-05-21T05:38:22.908Z,613.00
2023-05-21T05:39:22.963Z,612.00
2023-05-21T05:40:23.009Z,611.00
2023-05-21T05:41:23.069Z,611.00
2023-05-21T05:42:23.078Z,610.00
2023-05-21T05:43:23.122Z,610.00
2023-05-21T05:44:23.184Z,614.00
2023-05-21T05:45:23.209Z,616.00
2023-05-21T05:46:23.348Z,616.00
2023-05-21T05:47:23.304Z,615.00
2023-05-21T05:48:23.342Z,614.00
2023-05-21T05:49:23.388Z,615.00
2023-05-21T05:50:23.430Z,615.00
2023-05-21T05:51:23.483Z,614.00
2023-05-21T05:52:23.518Z,613.00
2023-05-21T05:53:23.591Z,610.00
2023-05-21T05:54:23.597Z,613.00
2023-05-21T05:55:23.630Z,613.00
2023-05-21T05:56:23.720Z,612.00
2023-05-21T05:57:23.738Z,611.00
2023-05-21T05:58:23.774Z,613.00
2023-05-21T05:59:23.816Z,617.00
2023-05-21T06:00:23.851Z,619.00
2023-05-21T06:01:23.895Z,620.00
2023-05-21T06:02:23.988Z,620.00
2023-05-21T06:03:24.071Z,625.00
2023-05-21T06:04:24.024Z,623.00
2023-05-21T06:05:24.090Z,618.00
2023-05-21T06:06:24.212Z,618.00
2023-05-21T06:07:24.197Z,618.00
2023-05-21T06:08:24.172Z,617.00
2023-05-21T06:09:24.220Z,618.00
2023-05-21T06:10:24.251Z,619.00
2023-05-21T06:11:24.305Z,616.00
2023-05-21T06:12:24.339Z,618.00
2023-05-21T06:13:24.389Z,619.00
2023-05-21T06:14:24.425Z,616.00
2023-05-21T06:15:24.466Z,614.00
2023-05-21T06:16:24.600Z,613.00
2023-05-21T06:17:24.595Z,618.00
2023-05-21T06:18:24.578Z,617.00
2023-05-21T06:19:24.664Z,619.00
2023-05-21T06:20:24.661Z,617.00
2023-05-21T06:21:24.698Z,616.00
2023-05-21T06:22:25.692Z,620.00
2023-05-21T06:23:24.768Z,620.00
2023-05-21T06:24:24.813Z,618.00
2023-05-21T06:25:24.873Z,617.00
2023-05-21T06:26:24.898Z,616.00
2023-05-21T06:27:24.951Z,617.00
2023-05-21T06:28:24.976Z,616.00
2023-05-21T06:29:25.023Z,616.00
2023-05-21T06:30:25.061Z,614.00
2023-05-21T06:31:25.112Z,612.00
2023-05-21T06:32:25.252Z,612.00
2023-05-21T06:33:25.263Z,614.00
2023-05-21T06:34:25.221Z,615.00
2023-05-21T06:35:25.259Z,614.00
2023-05-21T06:36:25.297Z,614.00
2023-05-21T06:37:26.672Z,616.00
2023-05-21T06:38:25.382Z,619.00
2023-05-21T06:39:25.417Z,618.00
2023-05-21T06:40:25.458Z,623.00
2023-05-21T06:41:25.498Z,622.00
2023-05-21T06:42:25.537Z,618.00
2023-05-21T06:43:25.579Z,619.00
2023-05-21T06:44:25.665Z,618.00
2023-05-21T06:45:25.668Z,618.00
2023-05-21T06:46:25.765Z,617.00
2023-05-21T06:47:25.761Z,616.00
2023-05-21T06:48:25.788Z,617.00
2023-05-21T06:49:25.822Z,620.00
2023-05-21T06:50:25.861Z,617.00
2023-05-21T06:51:25.897Z,614.00
2023-05-21T06:52:25.925Z,613.00
2023-05-21T06:53:25.963Z,615.00
2023-05-21T06:54:27.061Z,615.00
2023-05-21T06:55:26.043Z,618.00
2023-05-21T06:56:26.085Z,617.00
2023-05-21T06:57:26.112Z,619.00
2023-05-21T06:58:26.153Z,620.00
2023-05-21T06:59:26.191Z,620.00
2023-05-21T07:00:26.220Z,623.00
2023-05-21T07:01:26.281Z,620.00
2023-05-21T07:02:26.451Z,622.00
2023-05-21T07:03:26.408Z,619.00
2023-05-21T07:04:26.362Z,618.00
2023-05-21T07:05:26.414Z,619.00
2023-05-21T07:06:26.493Z,619.00
2023-05-21T07:07:26.495Z,618.00
2023-05-21T07:08:26.512Z,614.00
2023-05-21T07:09:26.546Z,613.00
2023-05-21T07:10:26.728Z,615.00
2023-05-21T07:11:26.627Z,615.00
2023-05-21T07:12:26.662Z,617.00
2023-05-21T07:13:26.701Z,617.00
2023-05-21T07:14:26.733Z,617.00
2023-05-21T07:15:26.792Z,616.00
2023-05-21T07:16:26.827Z,617.00
2023-05-21T07:17:26.889Z,618.00
2023-05-21T07:18:26.948Z,618.00
2023-05-21T07:19:26.972Z,619.00
2023-05-21T07:20:26.966Z,617.00
2023-05-21T07:21:27.016Z,617.00
2023-05-21T07:22:28.317Z,616.00
2023-05-21T07:23:27.085Z,614.00
2023-05-21T07:24:27.114Z,616.00
2023-05-21T07:25:27.155Z,618.00
2023-05-21T07:26:27.203Z,618.00
2023-05-21T07:27:27.230Z,618.00
2023-05-21T07:28:27.286Z,620.00
2023-05-21T07:29:27.307Z,620.00
2023-05-21T07:30:27.403Z,618.00
2023-05-21T07:31:27.481Z,618.00
2023-05-21T07:32:27.441Z,620.00
2023-05-21T07:33:27.453Z,619.00
2023-05-21T07:34:27.484Z,619.00
2023-05-21T07:35:27.531Z,619.00
2023-05-21T07:36:27.567Z,618.00
2023-05-21T07:37:27.681Z,620.00
2023-05-21T07:38:27.657Z,619.00
2023-05-21T07:39:27.691Z,623.00
2023-05-21T07:40:27.733Z,626.00
2023-05-21T07:41:27.795Z,624.00
2023-05-21T07:42:27.828Z,622.00
2023-05-21T07:43:27.872Z,623.00
2023-05-21T07:44:27.904Z,622.00
2023-05-21T07:45:27.931Z,621.00
2023-05-21T07:46:27.988Z,621.00
2023-05-21T07:47:28.042Z,621.00
2023-05-21T07:48:28.058Z,621.00
2023-05-21T07:49:28.095Z,620.00
2023-05-21T07:50:28.134Z,621.00
2023-05-21T07:51:28.165Z,620.00
2023-05-21T07:52:28.227Z,622.00
2023-05-21T07:53:28.223Z,622.00
2023-05-21T07:54:28.276Z,625.00
2023-05-21T07:55:28.285Z,626.00
2023-05-21T07:56:28.333Z,625.00
2023-05-21T07:57:28.356Z,622.00
2023-05-21T07:58:28.405Z,624.00
2023-05-21T07:59:28.435Z,626.00
2023-05-21T08:00:28.463Z,625.00
2023-05-21T08:01:28.507Z,630.00
2023-05-21T08:02:28.617Z,628.00
2023-05-21T08:03:28.722Z,629.00
2023-05-21T08:04:28.713Z,628.00
2023-05-21T08:05:28.654Z,628.00
2023-05-21T08:06:28.699Z,624.00
2023-05-21T08:07:28.728Z,625.00
2023-05-21T08:08:28.772Z,625.00
2023-05-21T08:09:28.800Z,625.00
2023-05-21T08:10:28.876Z,625.00
2023-05-21T08:11:30.448Z,628.00
2023-05-21T08:12:28.927Z,631.00
2023-05-21T08:13:28.965Z,628.00
2023-05-21T08:14:29.009Z,626.00
2023-05-21T08:15:29.047Z,626.00
2023-05-21T08:16:29.149Z,628.00
2023-05-21T08:17:29.225Z,630.00
2023-05-21T08:18:29.176Z,628.00
2023-05-21T08:19:29.306Z,626.00
2023-05-21T08:20:29.240Z,624.00
2023-05-21T08:21:29.290Z,627.00
2023-05-21T08:22:29.299Z,628.00
2023-05-21T08:23:29.337Z,628.00
2023-05-21T08:24:29.383Z,630.00
2023-05-21T08:25:29.401Z,628.00
2023-05-21T08:26:29.446Z,627.00
2023-05-21T08:27:29.504Z,628.00
2023-05-21T08:28:29.516Z,628.00
2023-05-21T08:29:29.550Z,626.00
2023-05-21T08:30:29.568Z,628.00
2023-05-21T08:31:29.612Z,626.00
2023-05-21T08:32:29.676Z,627.00
2023-05-21T08:33:29.659Z,626.00
2023-05-21T08:34:29.703Z,625.00
2023-05-21T08:35:29.739Z,625.00
2023-05-21T08:36:29.768Z,624.00
2023-05-21T08:37:29.806Z,624.00
2023-05-21T08:38:30.565Z,623.00
2023-05-21T08:39:29.870Z,624.00
2023-05-21T08:40:29.915Z,623.00
2023-05-21T08:41:30.102Z,623.00
2023-05-21T08:43:30.999Z,624.00
2023-05-21T08:44:30.002Z,624.00
2023-05-21T08:45:30.079Z,624.00
2023-05-21T08:46:30.073Z,624.00
2023-05-21T08:47:30.058Z,624.00
2023-05-21T08:48:30.041Z,623.00
2023-05-21T08:49:30.013Z,624.00
2023-05-21T08:50:30.029Z,622.00
2023-05-21T08:51:30.030Z,620.00
2023-05-21T08:52:30.034Z,622.00
2023-05-21T08:53:30.051Z,623.00
2023-05-21T08:54:30.047Z,623.00
2023-05-21T08:55:30.058Z,621.00
2023-05-21T08:56:30.068Z,622.00
2023-05-21T08:57:30.070Z,623.00
2023-05-21T08:58:30.083Z,621.00
2023-05-21T08:59:30.094Z,622.00
2023-05-21T09:00:30.122Z,624.00
2023-05-21T09:01:30.170Z,626.00
2023-05-21T09:02:30.193Z,625.00
2023-05-21T09:03:30.290Z,624.00
2023-05-21T09:04:30.317Z,623.00
2023-05-21T09:05:30.218Z,622.00
2023-05-21T09:06:30.270Z,622.00
2023-05-21T09:07:30.300Z,622.00
2023-05-21T09:08:30.331Z,625.00
2023-05-21T09:09:30.367Z,627.00
2023-05-21T09:10:30.400Z,627.00
2023-05-21T09:11:30.441Z,628.00
2023-05-21T09:12:30.494Z,630.00
2023-05-21T09:13:30.519Z,632.00
2023-05-21T09:14:30.549Z,634.00
2023-05-21T09:15:30.590Z,632.00
2023-05-21T09:16:30.658Z,630.00
2023-05-21T09:17:30.684Z,630.00
2023-05-21T09:18:31.665Z,631.00
2023-05-21T09:19:30.754Z,632.00
2023-05-21T09:20:30.704Z,631.00
2023-05-21T09:21:30.774Z,627.00
2023-05-21T09:22:30.719Z,627.00
2023-05-21T09:23:30.713Z,629.00
2023-05-21T09:24:30.801Z,629.00
2023-05-21T09:25:30.741Z,628.00
2023-05-21T09:26:30.740Z,631.00
2023-05-21T09:27:30.753Z,630.00
2023-05-21T09:28:30.746Z,628.00
2023-05-21T09:29:30.754Z,628.00
2023-05-21T09:30:32.578Z,630.00
2023-05-21T09:31:30.876Z,630.00
2023-05-21T09:32:30.813Z,633.00
2023-05-21T09:33:30.824Z,632.00
2023-05-21T09:34:30.829Z,632.00
2023-05-21T09:35:30.856Z,632.00
2023-05-21T09:36:30.855Z,628.00
2023-05-21T09:37:30.858Z,631.00
2023-05-21T09:38:30.850Z,628.00
2023-05-21T09:39:30.880Z,627.00
2023-05-21T09:40:30.886Z,631.00
2023-05-21T09:41:30.876Z,631.00
2023-05-21T09:42:30.889Z,627.00
2023-05-21T09:43:30.895Z,629.00
2023-05-21T09:44:30.928Z,629.00
2023-05-21T09:45:30.917Z,627.00
2023-05-21T09:46:30.965Z,628.00
2023-05-21T09:47:30.950Z,626.00
2023-05-21T09:48:30.943Z,624.00
2023-05-21T09:49:30.955Z,624.00
2023-05-21T09:50:30.968Z,626.00
2023-05-21T09:51:30.967Z,628.00
2023-05-21T09:52:30.974Z,628.00
2023-05-21T09:53:30.967Z,625.00
2023-05-21T09:54:31.008Z,625.00
2023-05-21T09:55:30.995Z,626.00
2023-05-21T09:56:30.992Z,625.00
2023-05-21T09:57:31.007Z,628.00
2023-05-21T09:58:31.011Z,628.00
2023-05-21T09:59:31.011Z,628.00
2023-05-21T10:00:31.020Z,626.00
2023-05-21T10:01:31.075Z,623.00
2023-05-21T10:02:31.079Z,620.00
2023-05-21T10:03:31.046Z,621.00
2023-05-21T10:04:31.088Z,623.00
2023-05-21T10:05:31.095Z,622.00
2023-05-21T10:06:31.085Z,622.00
2023-05-21T10:07:31.063Z,623.00
2023-05-21T10:08:31.068Z,625.00
2023-05-21T10:09:31.087Z,624.00
2023-05-21T10:10:31.097Z,621.00
2023-05-21T10:11:31.100Z,621.00
2023-05-21T10:12:31.124Z,621.00
2023-05-21T10:13:31.123Z,620.00
2023-05-21T10:14:31.125Z,623.00
2023-05-21T10:15:31.141Z,621.00
2023-05-21T10:16:31.173Z,618.00
2023-05-21T10:17:31.226Z,619.00
2023-05-21T10:18:31.149Z,622.00
2023-05-21T10:19:31.263Z,625.00
2023-05-21T10:20:31.186Z,624.00
2023-05-21T10:21:31.178Z,626.00
2023-05-21T10:22:31.177Z,624.00
2023-05-21T10:23:31.185Z,625.00
2023-05-21T10:24:31.196Z,624.00
2023-05-21T10:25:31.199Z,626.00
2023-05-21T10:26:31.222Z,624.00
2023-05-21T10:27:32.546Z,621.00
2023-05-21T10:28:31.231Z,621.00
2023-05-21T10:29:31.230Z,619.00
2023-05-21T10:30:31.236Z,617.00
2023-05-21T10:31:31.264Z,616.00
2023-05-21T10:32:31.317Z,617.00
2023-05-21T10:33:31.317Z,615.00
2023-05-21T10:34:31.282Z,618.00
2023-05-21T10:35:31.312Z,616.00
2023-05-21T10:36:31.333Z,615.00
2023-05-21T10:37:31.367Z,617.00
2023-05-21T10:38:31.404Z,620.00
2023-05-21T10:39:31.424Z,621.00
2023-05-21T10:40:31.447Z,619.00
2023-05-21T10:41:31.476Z,620.00
2023-05-21T10:42:31.497Z,619.00
2023-05-21T10:43:31.527Z,622.00
2023-05-21T10:44:31.551Z,624.00
2023-05-21T10:45:31.597Z,624.00
2023-05-21T10:46:31.597Z,626.00
2023-05-21T10:47:31.650Z,627.00
2023-05-21T10:48:31.639Z,628.00
2023-05-21T10:49:31.705Z,630.00
2023-05-21T10:50:31.693Z,629.00
2023-05-21T10:51:31.722Z,627.00
2023-05-21T10:52:31.748Z,626.00
2023-05-21T10:53:31.780Z,626.00
2023-05-21T10:54:31.803Z,624.00
2023-05-21T10:55:31.823Z,624.00
2023-05-21T10:56:31.849Z,625.00
2023-05-21T10:57:31.889Z,624.00
2023-05-21T10:58:31.913Z,623.00
2023-05-21T10:59:31.936Z,622.00
2023-05-21T11:00:31.934Z,622.00
2023-05-21T11:01:31.996Z,617.00
2023-05-21T11:02:32.021Z,613.00
2023-05-21T11:03:34.185Z,615.00
2023-05-21T11:04:32.035Z,619.00
2023-05-21T11:05:32.012Z,622.00
2023-05-21T11:06:32.030Z,621.00
2023-05-21T11:07:32.016Z,625.00
2023-05-21T11:08:32.022Z,625.00
2023-05-21T11:09:32.027Z,626.00
2023-05-21T11:10:32.036Z,627.00
2023-05-21T11:11:32.056Z,629.00
2023-05-21T11:12:32.062Z,631.00
2023-05-21T11:13:32.072Z,631.00
2023-05-21T11:14:32.079Z,634.00
2023-05-21T11:15:32.097Z,634.00
2023-05-21T11:16:32.138Z,634.00
2023-05-21T11:17:32.137Z,636.00
2023-05-21T11:18:32.117Z,635.00
2023-05-21T11:19:34.089Z,631.00
2023-05-21T11:20:32.118Z,630.00
2023-05-21T11:21:32.156Z,626.00
2023-05-21T11:22:32.143Z,628.00
2023-05-21T11:23:32.139Z,628.00
2023-05-21T11:24:32.174Z,630.00
2023-05-21T11:25:32.160Z,628.00
2023-05-21T11:26:32.184Z,627.00
2023-05-21T11:27:32.205Z,627.00
2023-05-21T11:28:32.186Z,626.00
2023-05-21T11:29:32.199Z,625.00
2023-05-21T11:30:34.011Z,623.00
2023-05-21T11:31:32.232Z,626.00
2023-05-21T11:32:32.289Z,629.00
2023-05-21T11:33:32.195Z,625.00
2023-05-21T11:34:32.215Z,629.00
2023-05-21T11:35:32.205Z,625.00
2023-05-21T11:36:34.017Z,624.00
2023-05-21T11:37:32.222Z,626.00
2023-05-21T11:38:32.248Z,625.00
2023-05-21T11:39:32.303Z,626.00
2023-05-21T11:40:32.244Z,624.00
2023-05-21T11:41:32.241Z,622.00
2023-05-21T11:42:32.243Z,624.00
2023-05-21T11:43:32.235Z,623.00
2023-05-21T11:44:32.235Z,624.00
2023-05-21T11:45:32.229Z,623.00
2023-05-21T11:46:32.323Z,622.00
2023-05-21T11:47:32.340Z,622.00
2023-05-21T11:48:32.740Z,624.00
2023-05-21T11:49:32.250Z,623.00
2023-05-21T11:50:32.248Z,625.00
2023-05-21T11:51:32.262Z,623.00
2023-05-21T11:52:32.265Z,621.00
2023-05-21T11:53:32.360Z,621.00
2023-05-21T11:54:32.361Z,622.00
2023-05-21T11:55:32.310Z,621.00
2023-05-21T11:56:32.294Z,619.00
2023-05-21T11:57:32.304Z,619.00
2023-05-21T11:58:32.307Z,621.00
2023-05-21T11:59:32.315Z,622.00
2023-05-21T12:00:32.313Z,619.00
2023-05-21T12:01:32.330Z,620.00
2023-05-21T12:02:32.655Z,620.00
2023-05-21T12:03:32.395Z,619.00
2023-05-21T12:04:32.340Z,620.00
2023-05-21T12:05:32.356Z,623.00
2023-05-21T12:06:32.359Z,619.00
2023-05-21T12:07:32.345Z,620.00
2023-05-21T12:08:32.353Z,622.00
2023-05-21T12:09:32.353Z,622.00
2023-05-21T12:10:32.450Z,619.00
2023-05-21T12:11:32.375Z,618.00
2023-05-21T12:12:42.211Z,615.00
2023-05-21T12:13:33.359Z,615.00
2023-05-21T12:14:32.363Z,617.00
2023-05-21T12:15:32.381Z,618.00
2023-05-21T12:16:32.439Z,617.00
2023-05-21T12:17:32.403Z,618.00
2023-05-21T12:18:32.376Z,617.00
2023-05-21T12:19:32.410Z,615.00
2023-05-21T12:20:32.411Z,617.00
2023-05-21T12:21:32.401Z,617.00
2023-05-21T12:22:32.396Z,616.00
2023-05-21T12:23:32.401Z,613.00
2023-05-21T12:24:32.415Z,615.00
2023-05-21T12:25:32.424Z,613.00
2023-05-21T12:26:32.424Z,610.00
2023-05-21T12:27:33.532Z,609.00
2023-05-21T12:28:32.432Z,610.00
2023-05-21T12:29:32.427Z,609.00